sensor_id;sensor_type;location;lat;lon;timestamp;P1;durP1;ratioP1;P2;durP2;ratioP2
25609;SDS011;13479;49.044;8.716;2023-03-13T05:02:45;0.55;;;0.25;;
25609;SDS011;13479;49.044;8.716;2023-03-13T05:05:10;1.75;;;0.47;;
25609;SDS011;13479;49.044;8.716;2023-03-13T05:07:36;1.35;;;0.38;;
25609;SDS011;13479;49.044;8.716;2023-03-13T05:10:01;1.27;;;0.50;;
25609;SDS011;13479;49.044;8.716;2023-03-13T05:12:26;1.33;;;0.30;;
25609;SDS011;13479;49.044;8.716;2023-03-13T05:14:52;0.63;;;0.32;;
25609;SDS011;13479;49.044;8.716;2023-03-13T05:17:17;1.80;;;0.40;;
25609;SDS011;13479;49.044;8.716;2023-03-13T05:19:42;2.42;;;0.40;;
25609;SDS011;13479;49.044;8.716;2023-03-13T05:22:08;0.73;;;0.30;;
25609;SDS011;13479;49.044;8.716;2023-03-13T05:24:33;0.93;;;0.40;;
25609;SDS011;13479;49.044;8.716;2023-03-13T05:26:58;2.97;;;0.50;;
25609;SDS011;13479;49.044;8.716;2023-03-13T05:29:24;2.47;;;0.40;;
25609;SDS011;13479;49.044;8.716;2023-03-13T05:31:49;1.65;;;0.38;;
25609;SDS011;13479;49.044;8.716;2023-03-13T05:34:14;1.20;;;0.50;;
25609;SDS011;13479;49.044;8.716;2023-03-13T05:36:39;1.92;;;0.40;;
25609;SDS011;13479;49.044;8.716;2023-03-13T05:39:05;1.77;;;0.30;;
25609;SDS011;13479;49.044;8.716;2023-03-13T05:41:30;0.80;;;0.20;;
25609;SDS011;13479;49.044;8.716;2023-03-13T05:43:55;0.95;;;0.30;;
25609;SDS011;13479;49.044;8.716;2023-03-13T05:46:20;1.67;;;0.30;;
25609;SDS011;13479;49.044;8.716;2023-03-13T05:48:46;2.45;;;0.40;;
25609;SDS011;13479;49.044;8.716;2023-03-13T05:51:11;0.80;;;0.45;;
25609;SDS011;13479;49.044;8.716;2023-03-13T05:53:37;1.17;;;0.22;;
25609;SDS011;13479;49.044;8.716;2023-03-13T05:56:02;1.70;;;0.50;;
25609;SDS011;13479;49.044;8.716;2023-03-13T05:58:28;0.70;;;0.38;;
25609;SDS011;13479;49.044;8.716;2023-03-13T06:00:53;1.08;;;0.30;;
25609;SDS011;13479;49.044;8.716;2023-03-13T06:03:18;0.32;;;0.20;;
25609;SDS011;13479;49.044;8.716;2023-03-13T06:05:43;1.20;;;0.20;;
25609;SDS011;13479;49.044;8.716;2023-03-13T06:08:09;0.82;;;0.20;;
25609;SDS011;13479;49.044;8.716;2023-03-13T06:10:34;0.30;;;0.20;;
25609;SDS011;13479;49.044;8.716;2023-03-13T06:12:59;1.00;;;0.40;;
25609;SDS011;13479;49.044;8.716;2023-03-13T06:15:24;0.95;;;0.30;;
25609;SDS011;13479;49.044;8.716;2023-03-13T06:17:50;0.50;;;0.20;;
25609;SDS011;13479;49.044;8.716;2023-03-13T06:20:15;2.20;;;0.38;;
25609;SDS011;13479;49.044;8.716;2023-03-13T06:22:41;0.65;;;0.30;;
25609;SDS011;13479;49.044;8.716;2023-03-13T06:25:06;1.45;;;0.30;;
25609;SDS011;13479;49.044;8.716;2023-03-13T06:27:32;0.63;;;0.20;;
25609;SDS011;13479;49.044;8.716;2023-03-13T06:29:57;1.23;;;0.20;;
25609;SDS011;13479;49.044;8.716;2023-03-13T06:32:22;1.10;;;0.40;;
25609;SDS011;13479;49.044;8.716;2023-03-13T06:34:48;0.60;;;0.35;;
25609;SDS011;13479;49.044;8.716;2023-03-13T06:37:13;1.88;;;0.30;;
25609;SDS011;13479;49.044;8.716;2023-03-13T06:39:38;2.85;;;0.40;;
25609;SDS011;13479;49.044;8.716;2023-03-13T06:42:04;0.82;;;0.40;;
25609;SDS011;13479;49.044;8.716;2023-03-13T06:44:29;0.70;;;0.30;;
25609;SDS011;13479;49.044;8.716;2023-03-13T06:46:54;0.60;;;0.30;;
25609;SDS011;13479;49.044;8.716;2023-03-13T06:49:20;0.43;;;0.20;;
25609;SDS011;13479;49.044;8.716;2023-03-13T06:51:45;0.80;;;0.50;;
25609;SDS011;13479;49.044;8.716;2023-03-13T06:54:10;2.05;;;0.30;;
25609;SDS011;13479;49.044;8.716;2023-03-13T06:56:35;0.32;;;0.28;;
25609;SDS011;13479;49.044;8.716;2023-03-13T06:59:01;0.57;;;0.30;;
25609;SDS011;13479;49.044;8.716;2023-03-13T07:01:26;0.82;;;0.30;;
25609;SDS011;13479;49.044;8.716;2023-03-13T07:03:51;3.15;;;0.50;;
25609;SDS011;13479;49.044;8.716;2023-03-13T07:06:17;2.33;;;0.40;;
25609;SDS011;13479;49.044;8.716;2023-03-13T07:08:42;1.42;;;0.50;;
25609;SDS011;13479;49.044;8.716;2023-03-13T07:11:08;1.45;;;0.30;;
25609;SDS011;13479;49.044;8.716;2023-03-13T07:13:35;4.40;;;0.88;;
25609;SDS011;13479;49.044;8.716;2023-03-13T07:16:01;0.63;;;0.20;;
25609;SDS011;13479;49.044;8.716;2023-03-13T07:18:29;0.70;;;0.20;;
25609;SDS011;13479;49.044;8.716;2023-03-13T07:20:56;0.30;;;0.30;;
25609;SDS011;13479;49.044;8.716;2023-03-13T07:23:24;1.15;;;0.30;;
25609;SDS011;13479;49.044;8.716;2023-03-13T07:25:54;1.10;;;0.22;;
25609;SDS011;13479;49.044;8.716;2023-03-13T07:28:22;1.55;;;0.40;;
25609;SDS011;13479;49.044;8.716;2023-03-13T07:30:48;0.90;;;0.40;;
25609;SDS011;13479;49.044;8.716;2023-03-13T07:33:13;2.80;;;0.30;;
25609;SDS011;13479;49.044;8.716;2023-03-13T07:35:39;1.98;;;0.30;;
25609;SDS011;13479;49.044;8.716;2023-03-13T07:38:04;1.10;;;0.45;;
25609;SDS011;13479;49.044;8.716;2023-03-13T07:40:30;1.75;;;0.40;;
25609;SDS011;13479;49.044;8.716;2023-03-13T07:42:55;1.40;;;0.40;;
25609;SDS011;13479;49.044;8.716;2023-03-13T07:45:20;0.50;;;0.30;;
25609;SDS011;13479;49.044;8.716;2023-03-13T07:47:45;0.68;;;0.30;;
25609;SDS011;13479;49.044;8.716;2023-03-13T07:50:11;0.82;;;0.20;;
25609;SDS011;13479;49.044;8.716;2023-03-13T07:52:36;0.30;;;0.30;;
25609;SDS011;13479;49.044;8.716;2023-03-13T07:55:01;1.02;;;0.40;;
25609;SDS011;13479;49.044;8.716;2023-03-13T07:57:26;1.05;;;0.40;;
25609;SDS011;13479;49.044;8.716;2023-03-13T07:59:52;0.25;;;0.20;;
25609;SDS011;13479;49.044;8.716;2023-03-13T08:02:17;0.50;;;0.20;;
25609;SDS011;13479;49.044;8.716;2023-03-13T08:04:42;0.30;;;0.30;;
25609;SDS011;13479;49.044;8.716;2023-03-13T08:07:08;0.20;;;0.20;;
25609;SDS011;13479;49.044;8.716;2023-03-13T08:09:34;0.30;;;0.30;;
25609;SDS011;13479;49.044;8.716;2023-03-13T08:11:59;0.60;;;0.30;;
25609;SDS011;13479;49.044;8.716;2023-03-13T08:14:26;5.47;;;0.68;;
25609;SDS011;13479;49.044;8.716;2023-03-13T08:16:51;0.77;;;0.38;;
25609;SDS011;13479;49.044;8.716;2023-03-13T08:19:17;0.85;;;0.40;;
25609;SDS011;13479;49.044;8.716;2023-03-13T08:21:42;1.30;;;0.40;;
25609;SDS011;13479;49.044;8.716;2023-03-13T08:24:07;1.25;;;0.30;;
25609;SDS011;13479;49.044;8.716;2023-03-13T08:26:35;2.70;;;0.50;;
25609;SDS011;13479;49.044;8.716;2023-03-13T08:29:03;1.25;;;0.40;;
25609;SDS011;13479;49.044;8.716;2023-03-13T08:31:35;2.65;;;0.50;;
25609;SDS011;13479;49.044;8.716;2023-03-13T08:34:02;1.38;;;0.50;;
25609;SDS011;13479;49.044;8.716;2023-03-13T08:36:29;4.03;;;0.30;;
25609;SDS011;13479;49.044;8.716;2023-03-13T08:38:59;1.27;;;0.40;;
25609;SDS011;13479;49.044;8.716;2023-03-13T08:41:27;0.93;;;0.40;;
25609;SDS011;13479;49.044;8.716;2023-03-13T08:43:54;1.95;;;0.50;;
25609;SDS011;13479;49.044;8.716;2023-03-13T08:46:20;1.85;;;0.43;;
25609;SDS011;13479;49.044;8.716;2023-03-13T08:48:50;1.38;;;0.45;;
25609;SDS011;13479;49.044;8.716;2023-03-13T08:51:18;3.20;;;0.50;;
25609;SDS011;13479;49.044;8.716;2023-03-13T08:53:44;2.15;;;0.70;;
25609;SDS011;13479;49.044;8.716;2023-03-13T08:56:11;0.90;;;0.50;;
25609;SDS011;13479;49.044;8.716;2023-03-13T08:58:38;2.92;;;0.60;;
25609;SDS011;13479;49.044;8.716;2023-03-13T09:01:05;3.08;;;0.70;;
25609;SDS011;13479;49.044;8.716;2023-03-13T09:03:34;2.45;;;0.75;;
25609;SDS011;13479;49.044;8.716;2023-03-13T09:06:00;1.95;;;0.52;;
25609;SDS011;13479;49.044;8.716;2023-03-13T09:08:27;1.30;;;0.40;;
25609;SDS011;13479;49.044;8.716;2023-03-13T09:10:54;2.80;;;0.80;;
25609;SDS011;13479;49.044;8.716;2023-03-13T09:13:20;3.45;;;0.70;;
25609;SDS011;13479;49.044;8.716;2023-03-13T09:15:52;1.42;;;0.60;;
25609;SDS011;13479;49.044;8.716;2023-03-13T09:18:18;1.67;;;0.70;;
25609;SDS011;13479;49.044;8.716;2023-03-13T09:20:43;1.42;;;0.68;;
25609;SDS011;13479;49.044;8.716;2023-03-13T09:23:09;2.08;;;0.60;;
25609;SDS011;13479;49.044;8.716;2023-03-13T09:25:36;2.72;;;0.70;;
25609;SDS011;13479;49.044;8.716;2023-03-13T09:28:02;1.63;;;0.82;;
25609;SDS011;13479;49.044;8.716;2023-03-13T09:30:27;2.33;;;0.70;;
25609;SDS011;13479;49.044;8.716;2023-03-13T09:32:53;1.75;;;0.60;;
25609;SDS011;13479;49.044;8.716;2023-03-13T09:35:18;0.88;;;0.60;;
25609;SDS011;13479;49.044;8.716;2023-03-13T09:37:43;2.72;;;0.60;;
25609;SDS011;13479;49.044;8.716;2023-03-13T09:40:12;3.15;;;0.55;;
25609;SDS011;13479;49.044;8.716;2023-03-13T09:42:43;1.38;;;0.43;;
25609;SDS011;13479;49.044;8.716;2023-03-13T09:45:15;0.80;;;0.60;;
25609;SDS011;13479;49.044;8.716;2023-03-13T09:47:47;2.70;;;0.50;;
25609;SDS011;13479;49.044;8.716;2023-03-13T09:50:24;2.83;;;0.60;;
25609;SDS011;13479;49.044;8.716;2023-03-13T09:52:54;1.85;;;0.50;;
25609;SDS011;13479;49.044;8.716;2023-03-13T09:55:27;1.90;;;0.60;;
25609;SDS011;13479;49.044;8.716;2023-03-13T10:01:02;1.65;;;0.70;;
25609;SDS011;13479;49.044;8.716;2023-03-13T10:03:37;2.05;;;0.68;;
25609;SDS011;13479;49.044;8.716;2023-03-13T10:06:12;3.22;;;0.65;;
25609;SDS011;13479;49.044;8.716;2023-03-13T10:08:42;2.17;;;0.70;;
25609;SDS011;13479;49.044;8.716;2023-03-13T10:11:15;2.22;;;0.77;;
25609;SDS011;13479;49.044;8.716;2023-03-13T10:14:09;4.05;;;1.00;;
25609;SDS011;13479;49.044;8.716;2023-03-13T10:19:57;1.85;;;0.68;;
25609;SDS011;13479;49.044;8.716;2023-03-13T10:22:25;2.65;;;1.00;;
25609;SDS011;13479;49.044;8.716;2023-03-13T10:24:57;1.92;;;0.60;;
25609;SDS011;13479;49.044;8.716;2023-03-13T10:27:26;3.75;;;0.90;;
25609;SDS011;13479;49.044;8.716;2023-03-13T10:29:52;3.50;;;1.02;;
25609;SDS011;13479;49.044;8.716;2023-03-13T10:32:17;4.22;;;1.08;;
25609;SDS011;13479;49.044;8.716;2023-03-13T10:35:04;2.10;;;0.80;;
25609;SDS011;13479;49.044;8.716;2023-03-13T10:37:30;1.33;;;0.73;;
25609;SDS011;13479;49.044;8.716;2023-03-13T10:43:03;3.97;;;0.90;;
25609;SDS011;13479;49.044;8.716;2023-03-13T10:45:34;2.58;;;0.80;;
25609;SDS011;13479;49.044;8.716;2023-03-13T10:48:10;1.50;;;0.77;;
25609;SDS011;13479;49.044;8.716;2023-03-13T10:50:37;2.47;;;1.20;;
25609;SDS011;13479;49.044;8.716;2023-03-13T10:56:12;2.15;;;1.00;;
25609;SDS011;13479;49.044;8.716;2023-03-13T10:58:40;2.22;;;0.93;;
25609;SDS011;13479;49.044;8.716;2023-03-13T11:03:43;3.55;;;0.90;;
25609;SDS011;13479;49.044;8.716;2023-03-13T11:06:23;2.60;;;1.20;;
25609;SDS011;13479;49.044;8.716;2023-03-13T11:08:48;2.60;;;0.90;;
25609;SDS011;13479;49.044;8.716;2023-03-13T11:11:17;2.80;;;1.00;;
25609;SDS011;13479;49.044;8.716;2023-03-13T11:13:44;3.80;;;0.95;;
25609;SDS011;13479;49.044;8.716;2023-03-13T11:16:12;1.92;;;1.05;;
25609;SDS011;13479;49.044;8.716;2023-03-13T11:18:50;1.35;;;0.75;;
25609;SDS011;13479;49.044;8.716;2023-03-13T11:21:20;4.22;;;0.70;;
25609;SDS011;13479;49.044;8.716;2023-03-13T11:23:57;2.25;;;0.80;;
25609;SDS011;13479;49.044;8.716;2023-03-13T11:26:40;1.70;;;0.90;;
25609;SDS011;13479;49.044;8.716;2023-03-13T11:31:54;2.28;;;0.85;;
25609;SDS011;13479;49.044;8.716;2023-03-13T11:34:25;2.80;;;0.90;;
25609;SDS011;13479;49.044;8.716;2023-03-13T11:37:12;3.13;;;0.80;;
25609;SDS011;13479;49.044;8.716;2023-03-13T11:39:46;1.83;;;0.88;;
25609;SDS011;13479;49.044;8.716;2023-03-13T11:48:08;3.05;;;1.15;;
25609;SDS011;13479;49.044;8.716;2023-03-13T11:51:14;1.90;;;0.90;;
25609;SDS011;13479;49.044;8.716;2023-03-13T11:57:20;3.75;;;0.85;;
25609;SDS011;13479;49.044;8.716;2023-03-13T12:02:23;3.67;;;0.98;;
25609;SDS011;13479;49.044;8.716;2023-03-13T12:05:02;2.65;;;0.90;;
25609;SDS011;13479;49.044;8.716;2023-03-13T12:07:34;2.22;;;0.90;;
25609;SDS011;13479;49.044;8.716;2023-03-13T12:10:11;1.40;;;0.93;;
25609;SDS011;13479;49.044;8.716;2023-03-13T12:15:40;1.98;;;0.82;;
25609;SDS011;13479;49.044;8.716;2023-03-13T12:21:16;2.05;;;0.80;;
25609;SDS011;13479;49.044;8.716;2023-03-13T12:26:20;2.92;;;1.10;;
25609;SDS011;13479;49.044;8.716;2023-03-13T12:32:03;1.52;;;0.80;;
25609;SDS011;13479;49.044;8.716;2023-03-13T12:34:33;2.25;;;0.90;;
25609;SDS011;13479;49.044;8.716;2023-03-13T12:40:10;2.03;;;0.90;;
25609;SDS011;13479;49.044;8.716;2023-03-13T12:45:19;2.45;;;0.80;;
25609;SDS011;13479;49.044;8.716;2023-03-13T12:47:59;2.60;;;1.00;;
25609;SDS011;13479;49.044;8.716;2023-03-13T12:53:19;3.22;;;0.90;;
25609;SDS011;13479;49.044;8.716;2023-03-13T12:58:48;3.10;;;1.00;;
25609;SDS011;13479;49.044;8.716;2023-03-13T13:03:49;4.53;;;1.10;;
25609;SDS011;13479;49.044;8.716;2023-03-13T13:06:19;2.72;;;0.93;;
25609;SDS011;13479;49.044;8.716;2023-03-13T13:16:43;0.90;;;0.70;;
25609;SDS011;13479;49.044;8.716;2023-03-13T13:29:59;1.75;;;0.70;;
25609;SDS011;13479;49.044;8.716;2023-03-13T13:37:50;2.33;;;0.90;;
25609;SDS011;13479;49.044;8.716;2023-03-13T13:40:28;2.17;;;0.70;;
25609;SDS011;13479;49.044;8.716;2023-03-13T13:43:02;2.90;;;0.85;;
25609;SDS011;13479;49.044;8.716;2023-03-13T13:45:30;3.72;;;0.80;;
25609;SDS011;13479;49.044;8.716;2023-03-13T13:48:14;3.42;;;0.88;;
25609;SDS011;13479;49.044;8.716;2023-03-13T13:51:05;3.33;;;0.60;;
25609;SDS011;13479;49.044;8.716;2023-03-13T13:53:46;3.47;;;0.80;;
25609;SDS011;13479;49.044;8.716;2023-03-13T13:58:53;1.90;;;1.00;;
25609;SDS011;13479;49.044;8.716;2023-03-13T14:01:21;2.53;;;0.80;;
25609;SDS011;13479;49.044;8.716;2023-03-13T14:03:46;1.30;;;0.68;;
25609;SDS011;13479;49.044;8.716;2023-03-13T14:08:51;2.13;;;0.88;;
25609;SDS011;13479;49.044;8.716;2023-03-13T14:11:32;3.25;;;1.15;;
25609;SDS011;13479;49.044;8.716;2023-03-13T14:14:34;5.40;;;0.82;;
25609;SDS011;13479;49.044;8.716;2023-03-13T14:16:53;1.98;;;0.80;;
25609;SDS011;13479;49.044;8.716;2023-03-13T14:19:24;1.85;;;0.77;;
25609;SDS011;13479;49.044;8.716;2023-03-13T14:22:05;1.23;;;0.68;;
25609;SDS011;13479;49.044;8.716;2023-03-13T14:24:32;4.30;;;0.70;;
25609;SDS011;13479;49.044;8.716;2023-03-13T14:26:58;5.05;;;0.90;;
25609;SDS011;13479;49.044;8.716;2023-03-13T14:29:24;2.05;;;0.90;;
25609;SDS011;13479;49.044;8.716;2023-03-13T14:31:54;3.05;;;0.90;;
25609;SDS011;13479;49.044;8.716;2023-03-13T14:34:24;2.10;;;0.77;;
25609;SDS011;13479;49.044;8.716;2023-03-13T14:36:54;3.38;;;0.70;;
25609;SDS011;13479;49.044;8.716;2023-03-13T14:42:00;0.90;;;0.70;;
25609;SDS011;13479;49.044;8.716;2023-03-13T14:44:28;2.47;;;0.80;;
25609;SDS011;13479;49.044;8.716;2023-03-13T14:46:56;2.75;;;1.10;;
25609;SDS011;13479;49.044;8.716;2023-03-13T14:49:24;2.17;;;0.85;;
25609;SDS011;13479;49.044;8.716;2023-03-13T14:54:28;1.65;;;0.70;;
25609;SDS011;13479;49.044;8.716;2023-03-13T14:57:03;2.17;;;0.70;;
25609;SDS011;13479;49.044;8.716;2023-03-13T14:59:49;3.42;;;0.70;;
25609;SDS011;13479;49.044;8.716;2023-03-13T15:02:18;2.13;;;0.80;;
25609;SDS011;13479;49.044;8.716;2023-03-13T15:05:28;0.90;;;0.63;;
25609;SDS011;13479;49.044;8.716;2023-03-13T15:07:54;1.15;;;0.68;;
25609;SDS011;13479;49.044;8.716;2023-03-13T15:10:20;1.50;;;0.90;;
25609;SDS011;13479;49.044;8.716;2023-03-13T15:12:56;4.68;;;0.80;;
25609;SDS011;13479;49.044;8.716;2023-03-13T15:15:22;1.30;;;0.70;;
25609;SDS011;13479;49.044;8.716;2023-03-13T15:17:47;1.58;;;0.60;;
25609;SDS011;13479;49.044;8.716;2023-03-13T15:20:13;3.92;;;0.80;;
25609;SDS011;13479;49.044;8.716;2023-03-13T15:22:40;2.13;;;0.80;;
25609;SDS011;13479;49.044;8.716;2023-03-13T15:25:14;2.80;;;0.70;;
25609;SDS011;13479;49.044;8.716;2023-03-13T15:27:42;1.80;;;0.68;;
25609;SDS011;13479;49.044;8.716;2023-03-13T15:30:07;2.33;;;0.80;;
25609;SDS011;13479;49.044;8.716;2023-03-13T15:32:35;1.95;;;0.70;;
25609;SDS011;13479;49.044;8.716;2023-03-13T15:35:08;1.23;;;0.70;;
25609;SDS011;13479;49.044;8.716;2023-03-13T15:37:51;1.33;;;0.77;;
25609;SDS011;13479;49.044;8.716;2023-03-13T15:40:16;1.52;;;0.90;;
25609;SDS011;13479;49.044;8.716;2023-03-13T15:42:42;0.90;;;0.65;;
25609;SDS011;13479;49.044;8.716;2023-03-13T15:45:07;2.35;;;0.88;;
25609;SDS011;13479;49.044;8.716;2023-03-13T15:47:33;2.53;;;0.90;;
25609;SDS011;13479;49.044;8.716;2023-03-13T15:49:58;1.65;;;0.77;;
25609;SDS011;13479;49.044;8.716;2023-03-13T15:52:24;3.03;;;0.80;;
25609;SDS011;13479;49.044;8.716;2023-03-13T15:54:49;1.83;;;0.68;;
25609;SDS011;13479;49.044;8.716;2023-03-13T15:57:17;1.27;;;0.80;;
25609;SDS011;13479;49.044;8.716;2023-03-13T15:59:47;2.10;;;0.70;;
25609;SDS011;13479;49.044;8.716;2023-03-13T16:02:13;1.23;;;0.70;;
25609;SDS011;13479;49.044;8.716;2023-03-13T16:04:41;0.68;;;0.50;;
25609;SDS011;13479;49.044;8.716;2023-03-13T16:07:08;2.15;;;0.50;;
25609;SDS011;13479;49.044;8.716;2023-03-13T16:09:37;2.55;;;0.70;;
25609;SDS011;13479;49.044;8.716;2023-03-13T16:12:04;2.67;;;0.80;;
25609;SDS011;13479;49.044;8.716;2023-03-13T16:14:29;1.35;;;0.60;;
25609;SDS011;13479;49.044;8.716;2023-03-13T16:16:54;2.83;;;0.60;;
25609;SDS011;13479;49.044;8.716;2023-03-13T16:19:19;3.33;;;0.73;;
25609;SDS011;13479;49.044;8.716;2023-03-13T16:21:45;2.47;;;0.60;;
25609;SDS011;13479;49.044;8.716;2023-03-13T16:24:12;2.95;;;0.70;;
25609;SDS011;13479;49.044;8.716;2023-03-13T16:26:39;0.75;;;0.60;;
25609;SDS011;13479;49.044;8.716;2023-03-13T16:29:04;8.10;;;0.80;;
25609;SDS011;13479;49.044;8.716;2023-03-13T16:31:30;1.83;;;0.60;;
25609;SDS011;13479;49.044;8.716;2023-03-13T16:33:57;1.55;;;0.70;;
25609;SDS011;13479;49.044;8.716;2023-03-13T16:36:27;1.77;;;0.68;;
25609;SDS011;13479;49.044;8.716;2023-03-13T16:38:55;1.92;;;0.60;;
25609;SDS011;13479;49.044;8.716;2023-03-13T16:41:22;1.77;;;0.70;;
25609;SDS011;13479;49.044;8.716;2023-03-13T16:43:48;2.45;;;0.85;;
25609;SDS011;13479;49.044;8.716;2023-03-13T16:46:18;2.83;;;0.68;;
25609;SDS011;13479;49.044;8.716;2023-03-13T16:48:46;1.92;;;0.70;;
25609;SDS011;13479;49.044;8.716;2023-03-13T16:51:19;1.85;;;0.70;;
25609;SDS011;13479;49.044;8.716;2023-03-13T16:53:46;1.85;;;0.90;;
25609;SDS011;13479;49.044;8.716;2023-03-13T16:56:15;2.88;;;1.00;;
25609;SDS011;13479;49.044;8.716;2023-03-13T16:58:45;1.40;;;0.70;;
25609;SDS011;13479;49.044;8.716;2023-03-13T17:01:11;2.83;;;0.90;;
25609;SDS011;13479;49.044;8.716;2023-03-13T17:03:36;3.65;;;0.80;;
25609;SDS011;13479;49.044;8.716;2023-03-13T17:06:01;2.00;;;0.90;;
25609;SDS011;13479;49.044;8.716;2023-03-13T17:08:27;3.10;;;1.08;;
25609;SDS011;13479;49.044;8.716;2023-03-13T17:10:52;1.85;;;0.75;;
25609;SDS011;13479;49.044;8.716;2023-03-13T17:13:18;1.92;;;0.90;;
25609;SDS011;13479;49.044;8.716;2023-03-13T17:15:44;1.50;;;0.70;;
25609;SDS011;13479;49.044;8.716;2023-03-13T17:18:09;3.13;;;0.85;;
25609;SDS011;13479;49.044;8.716;2023-03-13T17:20:36;2.33;;;0.70;;
25609;SDS011;13479;49.044;8.716;2023-03-13T17:23:01;2.88;;;0.60;;
25609;SDS011;13479;49.044;8.716;2023-03-13T17:25:26;1.50;;;0.70;;
25609;SDS011;13479;49.044;8.716;2023-03-13T17:27:52;4.22;;;1.10;;
25609;SDS011;13479;49.044;8.716;2023-03-13T17:30:25;2.95;;;0.90;;
25609;SDS011;13479;49.044;8.716;2023-03-13T17:32:52;4.15;;;0.70;;
25609;SDS011;13479;49.044;8.716;2023-03-13T17:35:18;1.98;;;0.60;;
25609;SDS011;13479;49.044;8.716;2023-03-13T17:37:44;2.90;;;0.63;;
25609;SDS011;13479;49.044;8.716;2023-03-13T17:40:31;2.15;;;0.60;;
25609;SDS011;13479;49.044;8.716;2023-03-13T17:42:56;0.68;;;0.52;;
25609;SDS011;13479;49.044;8.716;2023-03-13T17:45:23;2.28;;;0.60;;
25609;SDS011;13479;49.044;8.716;2023-03-13T17:47:49;1.77;;;0.80;;
25609;SDS011;13479;49.044;8.716;2023-03-13T17:50:15;2.15;;;0.80;;
25609;SDS011;13479;49.044;8.716;2023-03-13T17:52:44;10.90;;;0.88;;
25609;SDS011;13479;49.044;8.716;2023-03-13T17:55:09;3.58;;;0.90;;
25609;SDS011;13479;49.044;8.716;2023-03-13T17:57:35;3.00;;;0.75;;
25609;SDS011;13479;49.044;8.716;2023-03-13T18:00:00;1.23;;;0.70;;
25609;SDS011;13479;49.044;8.716;2023-03-13T18:02:26;1.65;;;1.00;;
25609;SDS011;13479;49.044;8.716;2023-03-13T18:04:51;1.70;;;0.70;;
25609;SDS011;13479;49.044;8.716;2023-03-13T18:09:52;8.02;;;1.15;;
25609;SDS011;13479;49.044;8.716;2023-03-13T18:12:17;4.00;;;0.80;;
25609;SDS011;13479;49.044;8.716;2023-03-13T18:14:44;1.83;;;0.80;;
25609;SDS011;13479;49.044;8.716;2023-03-13T18:17:21;3.13;;;1.10;;
25609;SDS011;13479;49.044;8.716;2023-03-13T18:19:48;5.38;;;0.90;;
25609;SDS011;13479;49.044;8.716;2023-03-13T18:22:17;2.30;;;0.90;;
25609;SDS011;13479;49.044;8.716;2023-03-13T18:24:49;1.83;;;0.80;;
25609;SDS011;13479;49.044;8.716;2023-03-13T18:27:16;4.45;;;1.20;;
25609;SDS011;13479;49.044;8.716;2023-03-13T18:29:43;3.33;;;1.33;;
25609;SDS011;13479;49.044;8.716;2023-03-13T18:32:11;3.15;;;1.20;;
25609;SDS011;13479;49.044;8.716;2023-03-13T18:34:37;2.80;;;1.02;;
25609;SDS011;13479;49.044;8.716;2023-03-13T18:37:04;1.77;;;1.10;;
25609;SDS011;13479;49.044;8.716;2023-03-13T18:39:35;1.77;;;1.05;;
25609;SDS011;13479;49.044;8.716;2023-03-13T18:42:00;4.28;;;1.20;;
25609;SDS011;13479;49.044;8.716;2023-03-13T18:44:25;2.20;;;1.20;;
25609;SDS011;13479;49.044;8.716;2023-03-13T18:46:51;2.90;;;1.23;;
25609;SDS011;13479;49.044;8.716;2023-03-13T18:49:20;2.13;;;1.30;;
25609;SDS011;13479;49.044;8.716;2023-03-13T18:51:46;3.17;;;1.38;;
25609;SDS011;13479;49.044;8.716;2023-03-13T18:54:13;2.30;;;1.30;;
25609;SDS011;13479;49.044;8.716;2023-03-13T18:56:38;3.05;;;1.50;;
25609;SDS011;13479;49.044;8.716;2023-03-13T18:59:05;4.47;;;1.40;;
25609;SDS011;13479;49.044;8.716;2023-03-13T19:01:35;7.72;;;1.73;;
25609;SDS011;13479;49.044;8.716;2023-03-13T19:04:00;4.07;;;1.75;;
25609;SDS011;13479;49.044;8.716;2023-03-13T19:06:30;2.72;;;1.75;;
25609;SDS011;13479;49.044;8.716;2023-03-13T19:08:57;3.83;;;1.70;;
25609;SDS011;13479;49.044;8.716;2023-03-13T19:11:25;4.88;;;2.20;;
25609;SDS011;13479;49.044;8.716;2023-03-13T19:13:52;6.30;;;2.00;;
25609;SDS011;13479;49.044;8.716;2023-03-13T19:18:51;8.55;;;2.80;;
25609;SDS011;13479;49.044;8.716;2023-03-13T19:23:49;4.07;;;2.13;;
25609;SDS011;13479;49.044;8.716;2023-03-13T19:26:16;3.58;;;1.52;;
25609;SDS011;13479;49.044;8.716;2023-03-13T19:28:42;2.72;;;1.33;;
25609;SDS011;13479;49.044;8.716;2023-03-13T19:31:08;5.05;;;1.65;;
25609;SDS011;13479;49.044;8.716;2023-03-13T19:33:33;2.65;;;1.23;;
25609;SDS011;13479;49.044;8.716;2023-03-13T19:35:59;3.63;;;1.50;;
25609;SDS011;13479;49.044;8.716;2023-03-13T19:38:25;4.18;;;1.70;;
25609;SDS011;13479;49.044;8.716;2023-03-13T19:40:50;3.55;;;1.27;;
25609;SDS011;13479;49.044;8.716;2023-03-13T19:43:15;2.30;;;1.10;;
25609;SDS011;13479;49.044;8.716;2023-03-13T19:45:41;2.05;;;1.40;;
25609;SDS011;13479;49.044;8.716;2023-03-13T19:48:07;1.42;;;0.65;;
25609;SDS011;13479;49.044;8.716;2023-03-13T19:50:33;1.83;;;1.05;;
25609;SDS011;13479;49.044;8.716;2023-03-13T19:52:59;1.75;;;0.93;;
25609;SDS011;13479;49.044;8.716;2023-03-13T19:55:24;4.53;;;2.03;;
25609;SDS011;13479;49.044;8.716;2023-03-13T19:57:49;5.38;;;1.13;;
25609;SDS011;13479;49.044;8.716;2023-03-13T20:00:19;1.83;;;0.80;;
25609;SDS011;13479;49.044;8.716;2023-03-13T20:02:46;3.50;;;0.70;;
25609;SDS011;13479;49.044;8.716;2023-03-13T20:05:11;4.00;;;0.50;;
25609;SDS011;13479;49.044;8.716;2023-03-13T20:07:36;2.47;;;0.73;;
25609;SDS011;13479;49.044;8.716;2023-03-13T20:10:02;2.90;;;0.82;;
25609;SDS011;13479;49.044;8.716;2023-03-13T20:12:29;1.58;;;0.55;;
25609;SDS011;13479;49.044;8.716;2023-03-13T20:14:54;1.42;;;0.45;;
25609;SDS011;13479;49.044;8.716;2023-03-13T20:17:19;2.47;;;0.50;;
25609;SDS011;13479;49.044;8.716;2023-03-13T20:19:45;0.93;;;0.52;;
25609;SDS011;13479;49.044;8.716;2023-03-13T20:22:10;1.65;;;0.70;;
25609;SDS011;13479;49.044;8.716;2023-03-13T20:24:35;2.05;;;0.68;;
25609;SDS011;13479;49.044;8.716;2023-03-13T20:27:02;1.55;;;0.60;;
25609;SDS011;13479;49.044;8.716;2023-03-13T20:29:28;2.15;;;0.52;;
25609;SDS011;13479;49.044;8.716;2023-03-13T20:31:53;1.90;;;0.40;;
25609;SDS011;13479;49.044;8.716;2023-03-13T20:34:23;1.17;;;0.50;;
25609;SDS011;13479;49.044;8.716;2023-03-13T20:36:48;1.95;;;0.47;;
25609;SDS011;13479;49.044;8.716;2023-03-13T20:39:17;2.58;;;0.68;;
25609;SDS011;13479;49.044;8.716;2023-03-13T20:41:42;2.85;;;0.68;;
25609;SDS011;13479;49.044;8.716;2023-03-13T20:44:07;0.90;;;0.55;;
25609;SDS011;13479;49.044;8.716;2023-03-13T20:46:33;1.45;;;0.40;;
25609;SDS011;13479;49.044;8.716;2023-03-13T20:48:59;1.60;;;0.40;;
25609;SDS011;13479;49.044;8.716;2023-03-13T20:51:24;1.85;;;0.40;;
25609;SDS011;13479;49.044;8.716;2023-03-13T20:53:50;2.85;;;0.50;;
25609;SDS011;13479;49.044;8.716;2023-03-13T20:56:15;1.63;;;0.35;;
25609;SDS011;13479;49.044;8.716;2023-03-13T20:58:40;1.67;;;0.47;;
25609;SDS011;13479;49.044;8.716;2023-03-13T21:01:06;1.25;;;0.60;;
25609;SDS011;13479;49.044;8.716;2023-03-13T21:03:31;1.35;;;0.60;;
25609;SDS011;13479;49.044;8.716;2023-03-13T21:06:00;0.77;;;0.50;;
25609;SDS011;13479;49.044;8.716;2023-03-13T21:08:36;0.70;;;0.30;;
25609;SDS011;13479;49.044;8.716;2023-03-13T21:11:01;0.85;;;0.50;;
25609;SDS011;13479;49.044;8.716;2023-03-13T21:13:27;0.50;;;0.40;;
25609;SDS011;13479;49.044;8.716;2023-03-13T21:15:58;1.05;;;0.55;;
25609;SDS011;13479;49.044;8.716;2023-03-13T21:18:24;4.03;;;0.40;;
25609;SDS011;13479;49.044;8.716;2023-03-13T21:20:49;1.10;;;0.52;;
25609;SDS011;13479;49.044;8.716;2023-03-13T21:23:14;1.52;;;0.45;;
25609;SDS011;13479;49.044;8.716;2023-03-13T21:25:40;1.13;;;0.30;;
25609;SDS011;13479;49.044;8.716;2023-03-13T21:28:05;1.90;;;0.40;;
25609;SDS011;13479;49.044;8.716;2023-03-13T21:30:31;1.85;;;0.50;;
25609;SDS011;13479;49.044;8.716;2023-03-13T21:32:56;2.70;;;0.40;;